Hovedside
METAR-TAF:

METAR-TAF

Lufthavner :

Scarborough, Tobago, Trinidad og Tobago

breddegrad: 11-09N, lengdegrad: 060-51W, høyde over havet: 8 m

Gjeldene værobservasjon

Denne rapporten ble laget for 1 time og 0 minutter siden, klokken 04:00 UTC
Vind 9 kt fra Øst-sørøst
Temperatur 28°C
Luftfuktighet 79%
Trykk 1013 hPa
Sikt 10 km eller mer
Få skyer i en høyde av 1600 ft

METAR: TTCP 210400Z 11009KT 9999 FEW016 28/24 Q1013 NOSIG

Tid: 01:00 (05:00 UTC)

Varsel

Denne rapporten ble laget for 7 timer og 0 minutter siden, klokken 22:00 UTC
Varsel gyldig fra 21. klokken 00 UTC til 21. klokken 24 UTC
Vind 5 kt fra Øst-sørøst
Sikt 10 km eller mer
Få skyer i en høyde av 1600 ft
Blir
fra 21. klokken 12 UTC til 21. klokken 14 UTC
Vind 15 kt fra Øst-sørøst
Spredte skyer i en høyde av 2000 ft

TAF: TTCP 202200Z 2100/2124 11005KT 9999 FEW016 BECMG 2112/2114 11015KT SCT020

Værobservasjoner og værvarsel for over 4000 flyplasser (METAR- og TAF-rapporter).

Tilgjengelige stasjoner er representert av de røde og gule prikkene på kartet.

Hold musepekeren over prikken for å se navnet på stasjonen.

Klikk så for å se værobservasjoner og -varsler.

For å forandre kartet kan du klikke på den grønne knappen med svart kryss for å zoome inn, på den grønne knappen med strek for å zoome ut, eller på de grønne pilene for å se tilstøtende kart.


METAR-TAF: